Terminal Aerodrome Forecast
Issued by NWS

Home | Current Version | Previous Version | Text Only | Print | Product List | Glossary On
Versions: 1 2 3 4 5 6 7 8 9 10 11 12 13 14 15 16 17 18 19 20 21 22 23 24 25 26 27
000
FTUS44 KLIX 242300
TAFHDC
TAF
KHDC 242320Z 2500/2524 00000KT P6SM SKC
     FM250400 00000KT P6SM FEW025
     FM250800 VRB04KT P6SM SCT040 PROB30 2518/2522 3SM TSRA
      BKN040CB=

USA.gov is the U.S. government's official web portal to all federal, state and local government web resources and services.